createdAt,value
2019-05-15T00:02:49.522Z,4.60
2019-05-15T00:06:53.762Z,4.60
2019-05-15T00:10:58.717Z,4.60
2019-05-15T00:15:03.150Z,4.70
2019-05-15T00:19:08.639Z,4.80
2019-05-15T00:23:13.578Z,4.80
2019-05-15T00:27:20.025Z,4.80
2019-05-15T00:31:24.084Z,5.00
2019-05-15T00:35:30.624Z,5.10
2019-05-15T00:39:34.254Z,5.10
2019-05-15T00:43:39.027Z,5.00
2019-05-15T00:47:43.583Z,5.10
2019-05-15T00:51:48.822Z,5.10
2019-05-15T00:55:53.296Z,5.20
2019-05-15T00:59:58.942Z,5.30
2019-05-15T01:04:03.566Z,5.30
2019-05-15T01:08:08.584Z,5.30
2019-05-15T01:12:13.135Z,5.40
2019-05-15T01:16:18.616Z,5.40
2019-05-15T01:20:23.491Z,5.30
2019-05-15T01:24:28.248Z,5.20
2019-05-15T01:28:33.051Z,5.00
2019-05-15T01:32:39.626Z,5.00
2019-05-15T01:36:44.056Z,4.90
2019-05-15T01:40:48.780Z,4.90
2019-05-15T01:44:53.463Z,4.90
2019-05-15T01:48:58.554Z,4.90
2019-05-15T01:53:03.014Z,4.90
2019-05-15T01:57:09.294Z,4.90
2019-05-15T02:01:13.636Z,4.80
2019-05-15T02:05:18.835Z,4.60
2019-05-15T02:09:23.409Z,4.50
2019-05-15T02:13:28.350Z,4.40
2019-05-15T02:17:33.047Z,4.40
2019-05-15T02:21:37.975Z,4.40
2019-05-15T02:25:42.321Z,4.30
2019-05-15T02:29:49.116Z,4.10
2019-05-15T02:33:52.770Z,4.10
2019-05-15T02:37:59.825Z,4.00
2019-05-15T02:42:03.051Z,3.90
2019-05-15T02:46:10.179Z,3.90
2019-05-15T02:50:14.095Z,3.90
2019-05-15T02:54:19.669Z,3.80
2019-05-15T02:58:24.250Z,3.80
2019-05-15T03:02:28.832Z,3.80
2019-05-15T03:06:33.512Z,3.70
2019-05-15T03:10:40.568Z,3.70
2019-05-15T03:14:44.140Z,3.60
2019-05-15T03:18:50.572Z,3.50
2019-05-15T03:22:54.604Z,3.40
2019-05-15T03:26:59.457Z,3.40
2019-05-15T03:31:18.351Z,3.30
2019-05-15T03:35:14.704Z,3.20
2019-05-15T03:39:19.054Z,3.30
2019-05-15T03:43:22.609Z,3.20
2019-05-15T03:47:29.952Z,3.30
2019-05-15T03:51:32.947Z,3.20
2019-05-15T03:55:40.040Z,3.30
2019-05-15T03:59:43.315Z,3.40
2019-05-15T04:03:49.606Z,3.50
2019-05-15T04:07:53.623Z,3.60
2019-05-15T04:12:00.058Z,3.60
2019-05-15T04:16:04.313Z,3.50
2019-05-15T04:20:10.568Z,3.60
2019-05-15T04:24:18.801Z,3.80
2019-05-15T04:28:22.072Z,4.00
2019-05-15T04:32:28.921Z,4.50
2019-05-15T04:36:32.821Z,4.90
2019-05-15T04:40:39.817Z,5.40
2019-05-15T04:44:43.708Z,5.90
2019-05-15T04:48:50.185Z,6.70
2019-05-15T04:52:54.664Z,7.30
2019-05-15T04:56:59.581Z,7.90
2019-05-15T05:01:04.298Z,9.10
2019-05-15T05:05:10.485Z,9.50
2019-05-15T05:09:15.273Z,10.00
2019-05-15T05:13:20.412Z,10.50
2019-05-15T05:17:25.201Z,10.70
2019-05-15T05:21:29.795Z,9.30
2019-05-15T05:25:34.398Z,8.50
2019-05-15T05:29:39.055Z,8.20
2019-05-15T05:33:43.679Z,8.00
2019-05-15T05:37:48.281Z,7.70
2019-05-15T05:41:52.943Z,7.60
2019-05-15T05:45:58.260Z,7.60
2019-05-15T05:50:03.639Z,7.70
2019-05-15T05:54:08.513Z,7.80
2019-05-15T05:58:13.229Z,7.80
2019-05-15T06:02:18.565Z,8.00
2019-05-15T06:06:23.403Z,8.20
2019-05-15T06:10:29.336Z,8.40
2019-05-15T06:14:34.020Z,8.50
2019-05-15T06:18:38.980Z,8.70
2019-05-15T06:22:43.780Z,9.10
2019-05-15T06:26:48.386Z,10.00
2019-05-15T06:30:53.116Z,10.60
2019-05-15T06:34:57.876Z,11.30
2019-05-15T06:39:02.695Z,11.70
2019-05-15T06:43:08.746Z,13.20
2019-05-15T06:47:13.581Z,13.30
2019-05-15T06:51:18.416Z,13.80
2019-05-15T06:55:23.096Z,15.20
2019-05-15T06:59:28.695Z,14.50
2019-05-15T07:03:33.365Z,14.10
2019-05-15T07:07:38.976Z,13.80
2019-05-15T07:11:43.752Z,13.00
2019-05-15T07:15:49.455Z,12.70
2019-05-15T07:19:54.336Z,12.40
2019-05-15T07:23:58.968Z,12.20
2019-05-15T07:28:03.615Z,12.00
2019-05-15T07:32:08.239Z,11.80
2019-05-15T07:36:12.862Z,12.30
2019-05-15T07:40:19.351Z,12.30
2019-05-15T07:44:24.116Z,12.70
2019-05-15T07:48:29.248Z,12.40
2019-05-15T07:52:34.617Z,12.20
2019-05-15T07:56:39.260Z,12.10
2019-05-15T08:00:43.768Z,12.00
2019-05-15T08:04:48.398Z,12.00
2019-05-15T08:08:52.904Z,12.00
2019-05-15T08:12:58.146Z,12.00
2019-05-15T08:17:02.875Z,12.50
2019-05-15T08:21:09.056Z,13.00
2019-05-15T08:25:28.283Z,12.80
2019-05-15T08:29:21.918Z,13.20
2019-05-15T08:33:28.088Z,13.50
2019-05-15T08:37:32.848Z,13.90
2019-05-15T08:41:39.051Z,14.20
2019-05-15T08:45:44.673Z,14.50
2019-05-15T08:49:49.188Z,15.00
2019-05-15T08:53:53.632Z,14.30
2019-05-15T08:58:07.218Z,14.50
2019-05-15T09:02:04.975Z,15.70
2019-05-15T09:06:09.525Z,14.90
2019-05-15T09:10:14.399Z,14.50
2019-05-15T09:14:18.854Z,14.00
2019-05-15T09:18:23.418Z,13.90
2019-05-15T09:22:29.138Z,14.30
2019-05-15T09:26:35.566Z,13.80
2019-05-15T09:30:40.315Z,13.80
2019-05-15T09:34:53.969Z,14.40
2019-05-15T09:38:51.187Z,14.40
2019-05-15T09:42:57.686Z,13.90
2019-05-15T09:47:02.006Z,13.60
2019-05-15T09:51:09.017Z,13.80
2019-05-15T09:55:13.483Z,13.60
2019-05-15T09:59:18.768Z,14.10
2019-05-15T10:03:23.558Z,14.40
2019-05-15T10:07:28.606Z,13.90
2019-05-15T10:11:33.196Z,14.20
2019-05-15T10:15:38.970Z,14.30
2019-05-15T10:19:43.715Z,14.00
2019-05-15T10:23:49.238Z,14.70
2019-05-15T10:27:54.111Z,14.20
2019-05-15T10:31:58.799Z,14.40
2019-05-15T10:36:03.594Z,14.50
2019-05-15T10:40:09.383Z,14.40
2019-05-15T10:44:14.017Z,14.40
2019-05-15T10:48:19.069Z,14.50
2019-05-15T10:52:23.858Z,14.30
2019-05-15T10:56:29.134Z,14.70
2019-05-15T11:00:34.058Z,14.60
2019-05-15T11:04:39.296Z,15.00
2019-05-15T11:08:44.283Z,15.00
2019-05-15T11:12:49.069Z,14.70
2019-05-15T11:16:53.724Z,15.00
2019-05-15T11:20:59.315Z,15.30
2019-05-15T11:25:09.365Z,15.20
2019-05-15T11:29:12.437Z,15.50
2019-05-15T11:33:18.980Z,15.30
2019-05-15T11:37:23.271Z,15.40
2019-05-15T11:41:29.513Z,15.00
2019-05-15T11:45:34.384Z,15.40
2019-05-15T11:49:38.902Z,15.60
2019-05-15T11:53:43.416Z,15.40
2019-05-15T11:57:51.500Z,15.50
2019-05-15T12:01:54.235Z,15.80
2019-05-15T12:06:14.600Z,16.00
2019-05-15T12:10:10.482Z,15.70
2019-05-15T12:14:13.784Z,15.90
2019-05-15T12:18:18.289Z,15.50
2019-05-15T12:22:22.903Z,15.70
2019-05-15T12:26:29.224Z,15.50
2019-05-15T12:30:33.778Z,15.70
2019-05-15T12:34:38.832Z,16.10
2019-05-15T12:38:43.808Z,16.10
2019-05-15T13:03:20.370Z,16.50
2019-05-15T13:07:24.912Z,16.80
2019-05-15T13:11:29.431Z,17.00
2019-05-15T13:15:33.927Z,17.30
2019-05-15T13:19:38.966Z,17.70
2019-05-15T13:23:43.600Z,17.30
2019-05-15T13:27:48.865Z,17.30
2019-05-15T13:31:53.551Z,17.00
2019-05-15T13:35:58.611Z,16.90
2019-05-15T13:40:03.875Z,16.70
2019-05-15T13:44:09.023Z,16.80
2019-05-15T13:48:16.464Z,16.70
2019-05-15T13:52:20.027Z,16.40
2019-05-15T13:56:24.627Z,16.20
2019-05-15T14:00:29.375Z,16.10
2019-05-15T14:04:33.958Z,16.20
2019-05-15T14:08:38.614Z,16.30
2019-05-15T14:12:43.149Z,16.40
2019-05-15T14:16:49.139Z,16.90
2019-05-15T14:20:53.916Z,16.90
2019-05-15T14:24:58.497Z,17.10
2019-05-15T14:29:05.613Z,17.50
2019-05-15T14:33:09.352Z,17.30
2019-05-15T14:37:13.950Z,16.90
2019-05-15T14:41:19.000Z,16.90
2019-05-15T14:45:23.773Z,16.80
2019-05-15T14:49:34.715Z,16.70
2019-05-15T14:53:34.787Z,16.90
2019-05-15T14:57:39.673Z,16.80
2019-05-15T15:01:44.252Z,17.00
2019-05-15T15:05:49.211Z,17.10
2019-05-15T15:09:53.904Z,17.20
2019-05-15T15:13:58.740Z,16.60
2019-05-15T15:18:03.390Z,16.00
2019-05-15T15:22:08.748Z,15.90
2019-05-15T15:26:13.444Z,15.70
2019-05-15T15:30:18.990Z,15.70
2019-05-15T15:34:23.707Z,15.70
2019-05-15T15:38:40.621Z,15.60
2019-05-15T15:42:34.757Z,15.70
2019-05-15T15:46:39.649Z,15.80
2019-05-15T15:50:45.062Z,15.80
2019-05-15T15:54:49.587Z,16.10
2019-05-15T15:58:54.127Z,15.80
2019-05-15T16:02:58.753Z,15.60
2019-05-15T16:07:03.505Z,15.60
2019-05-15T16:11:08.380Z,15.40
2019-05-15T16:15:13.120Z,15.40
2019-05-15T16:19:18.773Z,15.40
2019-05-15T16:23:23.582Z,15.40
2019-05-15T16:27:28.793Z,15.40
2019-05-15T16:31:33.352Z,15.20
2019-05-15T16:35:38.161Z,15.10
2019-05-15T16:39:42.846Z,15.10
2019-05-15T16:43:48.531Z,15.20
2019-05-15T16:47:53.264Z,15.10
2019-05-15T16:51:58.300Z,15.00
2019-05-15T16:56:03.152Z,15.10
2019-05-15T17:00:10.146Z,14.90
2019-05-15T17:04:14.663Z,14.90
2019-05-15T17:08:19.355Z,14.90
2019-05-15T17:12:23.935Z,14.70
2019-05-15T17:16:28.799Z,14.60
2019-05-15T17:20:33.790Z,14.40
2019-05-15T17:24:38.833Z,14.20
2019-05-15T17:28:43.677Z,14.10
2019-05-15T17:32:49.242Z,14.20
2019-05-15T17:36:54.232Z,14.30
2019-05-15T17:41:08.498Z,14.20
2019-05-15T17:45:14.232Z,14.20
2019-05-15T17:49:19.024Z,14.20
2019-05-15T17:53:23.692Z,14.20
2019-05-15T17:57:28.647Z,14.30
2019-05-15T18:01:33.399Z,14.30
2019-05-15T18:05:39.167Z,14.20
2019-05-15T18:09:51.600Z,14.10
2019-05-15T18:13:50.199Z,14.00
2019-05-15T18:17:54.748Z,14.00
2019-05-15T18:21:59.670Z,13.80
2019-05-15T18:26:04.274Z,13.70
2019-05-15T18:30:09.657Z,13.60
2019-05-15T18:34:14.360Z,13.50
2019-05-15T18:38:19.218Z,13.40
2019-05-15T18:42:24.008Z,13.20
2019-05-15T18:46:28.999Z,13.00
2019-05-15T18:50:33.678Z,13.00
2019-05-15T18:54:38.742Z,12.60
2019-05-15T18:58:43.649Z,12.30
2019-05-15T19:02:48.194Z,12.10
2019-05-15T19:06:53.075Z,11.80
2019-05-15T19:10:58.470Z,11.60
2019-05-15T19:15:04.491Z,11.50
2019-05-15T19:19:09.189Z,11.20
2019-05-15T19:23:13.808Z,10.90
2019-05-15T19:27:18.801Z,10.60
2019-05-15T19:31:27.127Z,10.40
2019-05-15T19:35:29.851Z,10.30
2019-05-15T19:39:34.463Z,10.00
2019-05-15T19:43:38.975Z,9.80
2019-05-15T19:47:43.642Z,9.60
2019-05-15T19:51:50.077Z,9.40
2019-05-15T19:55:54.718Z,9.20
2019-05-15T19:59:59.274Z,9.00
2019-05-15T20:04:03.899Z,8.90
2019-05-15T20:08:08.783Z,8.80
2019-05-15T20:12:13.442Z,8.60
2019-05-15T20:16:21.281Z,8.50
2019-05-15T20:20:24.645Z,8.30
2019-05-15T20:24:29.299Z,8.10
2019-05-15T20:28:33.815Z,8.10
2019-05-15T20:32:38.899Z,7.90
2019-05-15T20:36:43.665Z,7.80
2019-05-15T20:40:48.774Z,7.70
2019-05-15T20:44:53.649Z,7.60
2019-05-15T20:48:58.261Z,7.60
2019-05-15T20:53:02.896Z,7.40
2019-05-15T20:57:08.785Z,7.20
2019-05-15T21:01:13.579Z,7.10
2019-05-15T21:05:18.775Z,7.10
2019-05-15T21:09:23.507Z,7.10
2019-05-15T21:13:29.835Z,7.00
2019-05-15T21:17:34.268Z,6.90
2019-05-15T21:21:39.032Z,6.80
2019-05-15T21:25:43.687Z,6.70
2019-05-15T21:29:49.044Z,6.60
2019-05-15T21:33:53.880Z,6.60
2019-05-15T21:37:58.399Z,6.40
2019-05-15T21:42:03.230Z,6.40
2019-05-15T21:46:08.508Z,6.40
2019-05-15T21:50:14.445Z,6.30
2019-05-15T21:54:19.048Z,6.20
2019-05-15T21:58:23.679Z,6.10
2019-05-15T22:02:29.627Z,6.10
2019-05-15T22:06:34.331Z,6.10
2019-05-15T22:10:39.067Z,6.20
2019-05-15T22:14:43.671Z,6.10
2019-05-15T22:18:48.359Z,6.00
2019-05-15T22:22:52.903Z,6.10
2019-05-15T22:26:58.693Z,6.10
2019-05-15T22:31:03.420Z,6.10
2019-05-15T22:35:13.387Z,6.20
2019-05-15T22:39:14.948Z,6.10
2019-05-15T22:43:19.549Z,6.30
2019-05-15T22:47:24.229Z,6.30
2019-05-15T22:51:29.031Z,6.30
2019-05-15T22:55:33.616Z,6.20
2019-05-15T22:59:38.387Z,6.20
2019-05-15T23:03:43.244Z,6.10
2019-05-15T23:07:48.218Z,6.00
2019-05-15T23:11:52.980Z,6.00
2019-05-15T23:15:58.406Z,5.90
2019-05-15T23:20:04.318Z,5.90
2019-05-15T23:24:08.996Z,5.80
2019-05-15T23:28:13.531Z,5.70
2019-05-15T23:32:18.301Z,5.60
2019-05-15T23:36:22.820Z,5.50
2019-05-15T23:40:29.371Z,5.50
2019-05-15T23:44:33.751Z,5.30
2019-05-15T23:48:38.400Z,5.30
2019-05-15T23:52:42.962Z,5.20
2019-05-15T23:56:47.563Z,5.20
